Time,TemperatureF,DewpointF,PressureIn,WindDirection,WindDirectionDegrees,WindSpeedMPH,WindSpeedGustMPH,Humidity,HourlyPrecipIn,Conditions,Clouds,dailyrainin,SolarRadiationWatts/m^2,SoftwareType,DateUTC
2013-02-01 00:01:00,17.4,11.0,29.46,WNW,293,14.0,36.0,76,0.00,,,0.95,0,weatherlink.com 1.10,2013-02-01 05:01:00,
2013-02-01 00:16:00,17.5,11.0,29.48,NW,317,13.0,31.0,74,0.00,,,0.00,0,weatherlink.com 1.10,2013-02-01 05:16:00,
2013-02-01 00:31:00,17.3,10.0,29.49,South,184,6.0,29.0,73,0.00,,,0.00,0,weatherlink.com 1.10,2013-02-01 05:31:00,
2013-02-01 00:46:00,17.1,10.0,29.49,West,279,4.0,22.0,74,0.00,,,0.00,0,weatherlink.com 1.10,2013-02-01 05:46:00,
2013-02-01 01:01:00,16.9,10.0,29.49,NW,308,6.0,25.0,74,0.00,,,0.00,0,weatherlink.com 1.10,2013-02-01 06:01:00,
2013-02-01 01:16:00,16.7,10.0,29.50,NNW,347,5.0,30.0,75,0.00,,,0.00,0,weatherlink.com 1.10,2013-02-01 06:16:00,
2013-02-01 01:31:00,16.6,9.0,29.50,South,184,12.0,32.0,73,0.00,,,0.00,0,weatherlink.com 1.10,2013-02-01 06:31:00,
2013-02-01 01:46:00,16.6,9.0,29.50,North,5,10.0,51.0,71,0.00,,,0.00,0,weatherlink.com 1.10,2013-02-01 06:46:00,
2013-02-01 02:01:00,16.5,8.0,29.50,NNW,342,18.0,30.0,69,0.00,,,0.00,0,weatherlink.com 1.10,2013-02-01 07:01:00,
2013-02-01 02:16:00,16.3,8.0,29.52,NNW,342,6.0,22.0,69,0.00,,,0.00,0,weatherlink.com 1.10,2013-02-01 07:16:00,
2013-02-01 02:32:00,16.3,7.0,29.51,North,5,10.0,27.0,68,0.00,,,0.00,0,weatherlink.com 1.10,2013-02-01 07:32:00,
2013-02-01 02:47:00,16.1,7.0,29.52,SW,233,0.0,28.0,68,0.00,,,0.00,0,weatherlink.com 1.10,2013-02-01 07:47:00,
2013-02-01 03:01:00,16.1,7.0,29.51,West,277,6.0,31.0,67,0.00,,,0.00,0,weatherlink.com 1.10,2013-02-01 08:01:00,
2013-02-01 03:16:00,15.9,7.0,29.52,NW,325,8.0,24.0,69,0.00,,,0.00,0,weatherlink.com 1.10,2013-02-01 08:16:00,
2013-02-01 03:32:00,15.6,7.0,29.53,South,171,7.0,20.0,70,0.00,,,0.00,0,weatherlink.com 1.10,2013-02-01 08:32:00,
2013-02-01 03:47:00,15.5,7.0,29.53,West,275,3.0,20.0,69,0.00,,,0.00,0,weatherlink.com 1.10,2013-02-01 08:47:00,
2013-02-01 04:02:00,15.3,7.0,29.53,NW,314,9.0,24.0,69,0.00,,,0.00,0,weatherlink.com 1.10,2013-02-01 09:02:00,
2013-02-01 04:17:00,15.2,7.0,29.55,NW,311,6.0,19.0,69,0.00,,,0.00,0,weatherlink.com 1.10,2013-02-01 09:17:00,
2013-02-01 04:32:00,15.1,7.0,29.55,NNW,333,20.0,20.0,69,0.00,,,0.00,0,weatherlink.com 1.10,2013-02-01 09:32:00,
2013-02-01 04:47:00,15.0,6.0,29.56,SSW,200,12.0,20.0,68,0.00,,,0.00,0,weatherlink.com 1.10,2013-02-01 09:47:00,
2013-02-01 05:02:00,14.9,6.0,29.56,NW,306,8.0,18.0,68,0.00,,,0.00,0,weatherlink.com 1.10,2013-02-01 10:02:00,
2013-02-01 05:17:00,14.8,6.0,29.57,NW,316,7.0,16.0,68,0.00,,,0.00,0,weatherlink.com 1.10,2013-02-01 10:17:00,
2013-02-01 05:32:00,14.6,6.0,29.58,NNE,21,1.0,27.0,69,0.00,,,0.00,0,weatherlink.com 1.10,2013-02-01 10:32:00,
2013-02-01 05:47:00,14.7,6.0,29.59,SSE,148,2.0,9.0,69,0.00,,,0.00,0,weatherlink.com 1.10,2013-02-01 10:47:00,
2013-02-01 06:02:00,14.6,6.0,29.60,West,265,2.0,18.0,69,0.00,,,0.00,0,weatherlink.com 1.10,2013-02-01 11:02:00,
2013-02-01 06:17:00,14.5,7.0,29.61,WNW,284,2.0,15.0,73,0.00,,,0.00,0,weatherlink.com 1.10,2013-02-01 11:17:00,
2013-02-01 06:32:00,14.2,7.0,29.62,West,272,5.0,15.0,74,0.00,,,0.00,0,weatherlink.com 1.10,2013-02-01 11:32:00,
2013-02-01 06:47:00,14.3,8.0,29.63,NW,310,6.0,7.0,75,0.00,,,0.00,0,weatherlink.com 1.10,2013-02-01 11:47:00,
2013-02-01 07:02:00,14.2,8.0,29.63,SW,221,0.0,12.0,75,0.00,,,0.00,0,weatherlink.com 1.10,2013-02-01 12:02:00,
2013-02-01 07:17:00,14.3,7.0,29.65,NW,311,2.0,10.0,73,0.00,,,0.00,16,weatherlink.com 1.10,2013-02-01 12:17:00,
2013-02-01 07:33:00,14.1,8.0,29.66,SSW,210,5.0,12.0,75,0.00,,,0.00,12,weatherlink.com 1.10,2013-02-01 12:33:00,
2013-02-01 07:48:00,13.8,8.0,29.67,SSW,202,1.0,20.0,78,0.00,,,0.00,37,weatherlink.com 1.10,2013-02-01 12:48:00,
2013-02-01 08:04:00,13.8,8.0,29.68,NW,314,0.0,19.0,78,0.00,,,0.00,56,weatherlink.com 1.10,2013-02-01 13:04:00,
2013-02-01 08:18:00,13.9,9.0,29.69,WNW,289,6.0,14.0,79,0.00,,,0.00,62,weatherlink.com 1.10,2013-02-01 13:18:00,
2013-02-01 08:33:00,13.7,9.0,29.70,North,355,1.0,15.0,80,0.00,,,0.00,95,weatherlink.com 1.10,2013-02-01 13:33:00,
2013-02-01 08:48:00,13.8,9.0,29.70,NNW,338,2.0,14.0,80,0.00,,,0.00,76,weatherlink.com 1.10,2013-02-01 13:48:00,
2013-02-01 09:03:00,14.0,10.0,29.72,South,188,1.0,11.0,82,0.00,,,0.00,104,weatherlink.com 1.10,2013-02-01 14:03:00,
2013-02-01 09:19:00,14.1,9.0,29.72,West,259,2.0,14.0,81,0.00,,,0.00,81,weatherlink.com 1.10,2013-02-01 14:19:00,
2013-02-01 09:34:00,14.3,10.0,29.73,South,181,0.0,19.0,81,0.00,,,0.00,116,weatherlink.com 1.10,2013-02-01 14:34:00,
2013-02-01 09:49:00,14.4,10.0,29.74,WNW,303,4.0,13.0,81,0.00,,,0.00,139,weatherlink.com 1.10,2013-02-01 14:49:00,
2013-02-01 10:05:00,14.8,9.0,29.75,NW,309,0.0,16.0,79,0.00,,,0.00,130,weatherlink.com 1.10,2013-02-01 15:05:00,
2013-02-01 10:19:00,14.8,10.0,29.75,South,187,1.0,15.0,80,0.00,,,0.00,160,weatherlink.com 1.10,2013-02-01 15:19:00,
2013-02-01 10:34:00,14.8,10.0,29.75,NNW,327,3.0,12.0,82,0.00,,,0.00,239,weatherlink.com 1.10,2013-02-01 15:34:00,
2013-02-01 10:50:00,14.8,11.0,29.75,NW,309,4.0,16.0,84,0.00,,,0.00,135,weatherlink.com 1.10,2013-02-01 15:50:00,
2013-02-01 11:04:00,14.8,10.0,29.75,SSW,207,6.0,14.0,81,0.00,,,0.00,139,weatherlink.com 1.10,2013-02-01 16:04:00,
2013-02-01 11:21:00,15.5,9.0,29.75,SSE,157,1.0,23.0,74,0.00,,,0.00,501,weatherlink.com 1.10,2013-02-01 16:21:00,
2013-02-01 11:35:00,16.7,9.0,29.75,SW,223,9.0,18.0,71,0.00,,,0.00,610,weatherlink.com 1.10,2013-02-01 16:35:00,
2013-02-01 11:52:00,16.8,8.0,29.75,West,276,7.0,25.0,69,0.00,,,0.00,272,weatherlink.com 1.10,2013-02-01 16:52:00,
2013-02-01 12:05:00,16.6,8.0,29.74,NW,315,7.0,19.0,70,0.00,,,0.00,520,weatherlink.com 1.10,2013-02-01 17:05:00,
2013-02-01 12:21:00,17.3,8.0,29.74,NW,305,7.0,18.0,67,0.00,,,0.00,547,weatherlink.com 1.10,2013-02-01 17:21:00,
2013-02-01 12:35:00,16.6,7.0,29.74,NW,308,1.0,24.0,66,0.01,,,0.01,213,weatherlink.com 1.10,2013-02-01 17:35:00,
2013-02-01 12:52:00,17.2,8.0,29.74,NW,316,1.0,22.0,66,0.01,,,0.01,624,weatherlink.com 1.10,2013-02-01 17:52:00,
2013-02-01 13:07:00,18.2,7.0,29.74,West,260,7.0,21.0,63,0.01,,,0.01,432,weatherlink.com 1.10,2013-02-01 18:07:00,
2013-02-01 13:22:00,17.2,8.0,29.76,WNW,288,9.0,19.0,67,0.01,,,0.01,432,weatherlink.com 1.10,2013-02-01 18:22:00,
2013-02-01 13:37:00,17.4,7.0,29.76,West,281,7.0,24.0,65,0.00,,,0.01,325,weatherlink.com 1.10,2013-02-01 18:37:00,
2013-02-01 13:51:00,16.6,8.0,29.77,WNW,289,4.0,15.0,69,0.00,,,0.01,174,weatherlink.com 1.10,2013-02-01 18:51:00,
2013-02-01 14:06:00,16.3,8.0,29.77,WNW,292,0.0,13.0,70,0.00,,,0.01,120,weatherlink.com 1.10,2013-02-01 19:06:00,
2013-02-01 14:22:00,16.0,8.0,29.78,West,272,0.0,16.0,71,0.00,,,0.01,243,weatherlink.com 1.10,2013-02-01 19:22:00,
2013-02-01 14:38:00,15.6,9.0,29.78,NW,311,4.0,19.0,74,0.00,,,0.01,113,weatherlink.com 1.10,2013-02-01 19:38:00,
2013-02-01 14:54:00,15.7,7.0,29.78,WNW,286,0.0,19.0,69,0.00,,,0.01,181,weatherlink.com 1.10,2013-02-01 19:54:00,
2013-02-01 15:08:00,15.6,8.0,29.79,NNW,340,6.0,16.0,73,0.00,,,0.01,162,weatherlink.com 1.10,2013-02-01 20:08:00,
2013-02-01 15:23:00,15.5,8.0,29.80,NW,323,8.0,15.0,73,0.00,,,0.01,105,weatherlink.com 1.10,2013-02-01 20:23:00,
2013-02-01 15:37:00,15.5,8.0,29.81,NW,306,2.0,16.0,72,0.00,,,0.01,46,weatherlink.com 1.10,2013-02-01 20:37:00,
2013-02-01 15:53:00,14.9,8.0,29.82,NW,322,2.0,18.0,73,0.00,,,0.01,33,weatherlink.com 1.10,2013-02-01 20:53:00,
2013-02-01 16:08:00,14.3,9.0,29.83,NW,307,4.0,14.0,79,0.00,,,0.01,46,weatherlink.com 1.10,2013-02-01 21:08:00,
2013-02-01 16:24:00,14.2,10.0,29.84,North,360,1.0,11.0,82,0.00,,,0.01,37,weatherlink.com 1.10,2013-02-01 21:24:00,
2013-02-01 16:38:00,14.1,9.0,29.85,NW,323,8.0,11.0,81,0.00,,,0.01,21,weatherlink.com 1.10,2013-02-01 21:38:00,
2013-02-01 16:54:00,13.9,9.0,29.86,West,273,6.0,12.0,79,0.00,,,0.01,7,weatherlink.com 1.10,2013-02-01 21:54:00,
2013-02-01 17:09:00,14.0,7.0,29.86,NW,323,0.0,12.0,72,0.00,,,0.01,0,weatherlink.com 1.10,2013-02-01 22:09:00,
2013-02-01 17:24:00,13.9,5.0,29.88,West,279,1.0,13.0,69,0.00,,,0.01,0,weatherlink.com 1.10,2013-02-01 22:24:00,
2013-02-01 17:38:00,13.6,3.0,29.88,NW,304,3.0,25.0,64,0.00,,,0.01,0,weatherlink.com 1.10,2013-02-01 22:38:00,
2013-02-01 17:54:00,13.1,3.0,29.90,WNW,291,2.0,15.0,64,0.00,,,0.01,0,weatherlink.com 1.10,2013-02-01 22:54:00,
2013-02-01 18:09:00,12.9,3.0,29.91,WNW,294,1.0,14.0,66,0.00,,,0.01,0,weatherlink.com 1.10,2013-02-01 23:09:00,
2013-02-01 18:25:00,12.7,3.0,29.92,NW,320,8.0,13.0,64,0.00,,,0.01,0,weatherlink.com 1.10,2013-02-01 23:25:00,
2013-02-01 18:39:00,12.6,3.0,29.93,WSW,254,0.0,16.0,66,0.00,,,0.01,0,weatherlink.com 1.10,2013-02-01 23:39:00,
2013-02-01 18:55:00,12.3,4.0,29.92,ESE,123,2.0,13.0,68,0.00,,,0.01,0,weatherlink.com 1.10,2013-02-01 23:55:00,
2013-02-01 19:10:00,12.1,3.0,29.93,NW,317,6.0,24.0,67,0.00,,,0.01,0,weatherlink.com 1.10,2013-02-02 00:10:00,
2013-02-01 19:25:00,11.8,3.0,29.93,West,271,1.0,14.0,67,0.00,,,0.01,0,weatherlink.com 1.10,2013-02-02 00:25:00,
2013-02-01 19:42:00,11.4,2.0,29.94,North,351,7.0,18.0,67,0.00,,,0.01,0,weatherlink.com 1.10,2013-02-02 00:42:00,
2013-02-01 19:55:00,11.1,2.0,29.93,West,281,1.0,18.0,68,0.00,,,0.01,0,weatherlink.com 1.10,2013-02-02 00:55:00,
2013-02-01 20:11:00,10.8,2.0,29.95,SW,236,5.0,19.0,67,0.00,,,0.01,0,weatherlink.com 1.10,2013-02-02 01:11:00,
2013-02-01 20:26:00,10.7,2.0,29.96,WNW,284,6.0,27.0,68,0.00,,,0.01,0,weatherlink.com 1.10,2013-02-02 01:26:00,
2013-02-01 20:41:00,10.6,2.0,29.96,NW,323,4.0,27.0,68,0.00,,,0.01,0,weatherlink.com 1.10,2013-02-02 01:41:00,
2013-02-01 20:56:00,10.6,2.0,29.96,NW,309,3.0,18.0,68,0.00,,,0.01,0,weatherlink.com 1.10,2013-02-02 01:56:00,
2013-02-01 21:11:00,10.5,3.0,29.97,WNW,284,5.0,20.0,70,0.00,,,0.01,0,weatherlink.com 1.10,2013-02-02 02:11:00,
2013-02-01 21:26:00,10.3,3.0,29.98,WNW,286,1.0,18.0,71,0.00,,,0.01,0,weatherlink.com 1.10,2013-02-02 02:26:00,
2013-02-01 21:41:00,10.3,3.0,29.98,South,170,4.0,19.0,71,0.00,,,0.01,0,weatherlink.com 1.10,2013-02-02 02:41:00,
2013-02-01 21:56:00,10.4,2.0,29.99,NNW,329,11.0,21.0,68,0.00,,,0.01,0,weatherlink.com 1.10,2013-02-02 02:56:00,
2013-02-01 22:11:00,10.3,2.0,29.99,NW,319,13.0,13.0,70,0.00,,,0.01,0,weatherlink.com 1.10,2013-02-02 03:11:00,
2013-02-01 22:27:00,10.1,3.0,29.99,NW,304,5.0,25.0,74,0.00,,,0.01,0,weatherlink.com 1.10,2013-02-02 03:27:00,
2013-02-01 22:42:00,10.0,3.0,29.99,NNW,331,7.0,22.0,72,0.00,,,0.01,0,weatherlink.com 1.10,2013-02-02 03:42:00,
2013-02-01 22:57:00,10.0,2.0,30.00,SSE,164,2.0,25.0,70,0.00,,,0.01,0,weatherlink.com 1.10,2013-02-02 03:57:00,
2013-02-01 23:12:00,9.9,3.0,30.00,NW,323,1.0,22.0,72,0.00,,,0.01,0,weatherlink.com 1.10,2013-02-02 04:12:00,
2013-02-01 23:27:00,9.7,3.0,30.01,NW,306,2.0,19.0,73,0.00,,,0.01,0,weatherlink.com 1.10,2013-02-02 04:27:00,
2013-02-01 23:42:00,9.4,2.0,30.01,WNW,285,3.0,26.0,72,0.00,,,0.01,0,weatherlink.com 1.10,2013-02-02 04:42:00,
2013-02-01 23:57:00,9.2,2.0,30.02,WNW,284,2.0,19.0,71,0.00,,,0.01,0,weatherlink.com 1.10,2013-02-02 04:57:00,